createdAt,value
2022-08-01T00:00:26.107Z,18.45
2022-08-01T00:03:27.731Z,15.52
2022-08-01T00:06:29.369Z,13.43
2022-08-01T00:09:30.984Z,19.30
2022-08-01T00:12:32.700Z,19.38
2022-08-01T00:15:34.731Z,15.95
2022-08-01T00:18:36.629Z,16.85
2022-08-01T00:21:38.228Z,20.90
2022-08-01T00:24:53.783Z,18.67
2022-08-01T00:27:55.625Z,18.48
2022-08-01T00:30:57.212Z,20.65
2022-08-01T00:33:58.911Z,20.30
2022-08-01T00:37:00.828Z,26.52
2022-08-01T00:40:02.455Z,23.08
2022-08-01T00:43:04.530Z,21.25
2022-08-01T00:46:06.260Z,25.55
2022-08-01T00:49:10.432Z,24.77
2022-08-01T00:52:13.055Z,27.65
2022-08-01T00:55:15.327Z,25.17
2022-08-01T00:58:17.779Z,23.67
2022-08-01T01:01:21.663Z,24.95
2022-08-01T01:04:23.887Z,27.67
2022-08-01T01:08:00.144Z,23.27
2022-08-01T01:15:01.261Z,31.45
2022-08-01T01:18:13.896Z,25.52
2022-08-01T01:21:51.755Z,29.80
2022-08-01T01:25:05.516Z,26.42
2022-08-01T01:28:32.592Z,25.98
2022-08-01T01:31:42.703Z,26.13
2022-08-01T01:34:48.537Z,23.77
2022-08-01T01:37:54.086Z,37.78
2022-08-01T01:40:56.976Z,23.80
2022-08-01T01:44:01.241Z,31.05
2022-08-01T01:47:03.943Z,32.20
2022-08-01T01:50:09.350Z,29.85
2022-08-01T01:53:15.166Z,28.08
2022-08-01T01:56:19.151Z,27.30
2022-08-01T01:59:25.883Z,27.10
2022-08-01T02:02:28.871Z,38.38
2022-08-01T02:05:31.063Z,34.42
2022-08-01T02:08:34.947Z,39.35
2022-08-01T02:11:39.213Z,28.45
2022-08-01T02:15:02.672Z,31.48
2022-08-01T02:18:05.729Z,33.22
2022-08-01T02:21:12.814Z,35.70
2022-08-01T02:24:19.680Z,30.77
2022-08-01T02:27:44.880Z,33.75
2022-08-01T02:30:49.570Z,28.88
2022-08-01T02:34:03.075Z,44.42
2022-08-01T02:37:05.748Z,34.92
2022-08-01T02:40:10.238Z,35.97
2022-08-01T02:43:21.699Z,32.13
2022-08-01T02:46:39.437Z,33.08
2022-08-01T02:49:46.272Z,39.72
2022-08-01T02:52:52.232Z,33.15
2022-08-01T02:55:55.619Z,41.20
2022-08-01T02:58:57.319Z,40.50
2022-08-01T03:02:03.093Z,40.33
2022-08-01T03:05:06.023Z,41.08
2022-08-01T03:08:11.931Z,46.53
2022-08-01T03:11:17.775Z,42.88
2022-08-01T03:14:22.440Z,50.80
2022-08-01T03:17:27.638Z,41.25
2022-08-01T03:20:31.926Z,38.95
2022-08-01T03:23:38.017Z,47.67
2022-08-01T03:26:41.228Z,51.63
2022-08-01T03:29:44.490Z,47.90
2022-08-01T03:32:47.094Z,47.75
2022-08-01T03:35:51.188Z,51.60
2022-08-01T03:38:54.580Z,48.83
2022-08-01T03:42:02.241Z,55.05
2022-08-01T03:45:10.319Z,58.67
2022-08-01T03:48:18.402Z,53.17
2022-08-01T03:51:22.157Z,58.70
2022-08-01T03:54:28.971Z,41.60
2022-08-01T03:57:36.679Z,53.22
2022-08-01T04:00:40.445Z,53.05
2022-08-01T04:03:43.150Z,49.75
2022-08-01T04:06:45.819Z,55.17
2022-08-01T04:09:47.396Z,54.83
2022-08-01T04:12:49.392Z,55.00
2022-08-01T04:15:50.956Z,46.13
2022-08-01T04:18:52.610Z,54.67
2022-08-01T04:21:54.254Z,60.70
2022-08-01T04:24:58.098Z,76.18
2022-08-01T04:28:01.256Z,47.97
2022-08-01T04:31:06.607Z,44.55
2022-08-01T04:34:10.951Z,56.67
2022-08-01T04:37:13.835Z,43.20
2022-08-01T04:40:16.947Z,48.60
2022-08-01T04:43:19.741Z,64.13
2022-08-01T04:46:22.395Z,58.70
2022-08-01T04:49:25.430Z,46.88
2022-08-01T04:52:37.360Z,45.05
2022-08-01T04:55:38.977Z,51.13
2022-08-01T04:58:41.975Z,46.95
2022-08-01T05:01:43.607Z,46.35
2022-08-01T05:04:47.046Z,52.45
2022-08-01T05:07:48.686Z,48.90
2022-08-01T05:10:50.383Z,52.22
2022-08-01T05:13:52.452Z,46.65
2022-08-01T05:16:54.322Z,44.13
2022-08-01T05:19:55.902Z,40.08
2022-08-01T05:22:58.130Z,33.55
2022-08-01T05:25:59.714Z,33.70
2022-08-01T05:29:01.557Z,47.28
2022-08-01T05:32:04.155Z,42.15
2022-08-01T05:35:06.749Z,41.75
2022-08-01T05:38:08.308Z,39.40
2022-08-01T05:41:15.699Z,41.45
2022-08-01T05:44:17.404Z,47.75
2022-08-01T05:47:19.324Z,44.22
2022-08-01T05:50:20.938Z,37.33
2022-08-01T05:53:22.559Z,37.05
2022-08-01T05:56:24.292Z,44.58
2022-08-01T05:59:26.390Z,38.95
2022-08-01T06:02:28.795Z,34.55
2022-08-01T06:05:30.497Z,28.25
2022-08-01T06:08:32.379Z,25.05
2022-08-01T06:11:34.039Z,28.33
2022-08-01T06:14:35.696Z,26.77
2022-08-01T06:17:37.289Z,26.55
2022-08-01T06:20:38.973Z,24.85
2022-08-01T06:23:42.342Z,21.38
2022-08-01T06:26:43.974Z,23.55
2022-08-01T06:29:50.409Z,24.08
2022-08-01T06:33:00.823Z,29.63
2022-08-01T06:36:02.461Z,29.27
2022-08-01T06:39:04.113Z,29.58
2022-08-01T06:42:05.955Z,23.20
2022-08-01T06:45:10.515Z,32.35
2022-08-01T06:48:12.167Z,25.73
2022-08-01T06:51:17.623Z,27.10
2022-08-01T06:54:19.471Z,27.95
2022-08-01T06:57:21.087Z,21.33
2022-08-01T07:00:24.346Z,25.50
2022-08-01T07:03:26.382Z,19.42
2022-08-01T07:06:29.409Z,22.92
2022-08-01T07:09:31.066Z,21.83
2022-08-01T07:12:34.149Z,22.15
2022-08-01T07:15:35.769Z,20.38
2022-08-01T07:18:37.461Z,20.67
2022-08-01T07:21:41.336Z,20.40
2022-08-01T07:24:45.893Z,19.80
2022-08-01T07:27:47.831Z,21.63
2022-08-01T07:30:49.833Z,22.17
2022-08-01T07:33:51.869Z,18.17
2022-08-01T07:36:53.871Z,21.38
2022-08-01T07:39:55.547Z,22.48
2022-08-01T07:42:57.190Z,20.00
2022-08-01T07:45:58.772Z,13.00
2022-08-01T07:49:00.520Z,21.63
2022-08-01T07:52:04.288Z,18.27
2022-08-01T07:55:06.897Z,16.05
2022-08-01T07:58:08.628Z,16.58
2022-08-01T08:01:10.349Z,14.65
2022-08-01T08:04:11.959Z,9.82
2022-08-01T08:07:13.507Z,11.25
2022-08-01T08:10:15.113Z,11.75
2022-08-01T08:13:16.747Z,9.38
2022-08-01T08:16:21.752Z,11.25
2022-08-01T08:19:37.317Z,10.82
2022-08-01T08:22:40.334Z,14.25
2022-08-01T08:25:41.898Z,12.85
2022-08-01T08:28:43.559Z,12.57
2022-08-01T08:31:51.709Z,14.20
2022-08-01T08:34:54.020Z,15.73
2022-08-01T08:37:55.943Z,16.95
2022-08-01T08:41:00.696Z,15.57
2022-08-01T08:44:03.685Z,11.70
2022-08-01T08:47:07.045Z,11.52
2022-08-01T08:50:11.295Z,10.55
2022-08-01T08:53:18.321Z,10.63
2022-08-01T08:56:21.601Z,6.75
2022-08-01T08:59:25.371Z,5.55
2022-08-01T09:02:27.055Z,10.77
2022-08-01T09:05:38.571Z,13.90
2022-08-01T09:08:41.150Z,12.35
2022-08-01T09:11:42.754Z,10.15
2022-08-01T09:14:47.364Z,9.85
2022-08-01T09:17:48.993Z,8.43
2022-08-01T09:20:50.589Z,7.78
2022-08-01T09:23:55.056Z,8.23
2022-08-01T09:26:57.518Z,5.93
2022-08-01T09:30:23.709Z,6.57
2022-08-01T09:33:58.836Z,6.30
2022-08-01T09:37:03.235Z,6.90
2022-08-01T09:40:05.444Z,6.88
2022-08-01T09:43:15.066Z,9.57
2022-08-01T09:46:17.501Z,9.20
2022-08-01T09:49:50.799Z,10.95
2022-08-01T09:52:59.016Z,8.93
2022-08-01T09:56:12.451Z,8.03
2022-08-01T09:59:19.314Z,6.90
2022-08-01T10:02:44.850Z,6.63
2022-08-01T10:05:55.471Z,7.60
2022-08-01T10:09:02.355Z,5.43
2022-08-01T10:12:15.875Z,6.57
2022-08-01T10:15:37.376Z,3.88
2022-08-01T10:18:42.610Z,5.38
2022-08-01T10:21:56.601Z,6.78
2022-08-01T10:25:05.528Z,7.97
2022-08-01T10:28:17.889Z,6.25
2022-08-01T10:31:20.512Z,3.72
2022-08-01T10:34:34.713Z,3.42
2022-08-01T10:37:51.856Z,3.72
2022-08-01T10:40:58.690Z,3.25
2022-08-01T10:44:02.853Z,2.65
2022-08-01T10:47:11.408Z,1.50
2022-08-01T10:50:26.800Z,2.45
2022-08-01T10:53:31.911Z,3.67
2022-08-01T10:56:48.780Z,6.35
2022-08-01T11:00:01.170Z,3.92
2022-08-01T11:03:04.653Z,6.88
2022-08-01T11:06:06.438Z,5.10
2022-08-01T11:09:16.476Z,8.25
2022-08-01T11:12:23.869Z,2.75
2022-08-01T11:15:29.710Z,1.13
2022-08-01T11:18:33.682Z,1.40
2022-08-01T11:22:01.151Z,0.57
2022-08-01T11:25:03.517Z,0.70
2022-08-01T11:28:32.810Z,1.10
2022-08-01T11:31:38.302Z,1.35
2022-08-01T11:34:58.598Z,1.40
2022-08-01T11:38:25.341Z,1.30
2022-08-01T11:41:38.090Z,2.00
2022-08-01T11:44:51.633Z,1.50
2022-08-01T11:47:53.734Z,1.98
2022-08-01T11:50:57.339Z,0.93
2022-08-01T11:53:59.831Z,2.08
2022-08-01T11:57:07.111Z,1.17
2022-08-01T12:00:16.946Z,2.95
2022-08-01T12:03:33.845Z,1.58
2022-08-01T12:06:35.834Z,1.30
2022-08-01T12:09:37.752Z,3.17
2022-08-01T12:12:52.749Z,1.88
2022-08-01T12:15:56.973Z,1.50
2022-08-01T12:18:58.727Z,0.80
2022-08-01T12:22:13.470Z,5.20
2022-08-01T12:25:20.590Z,1.98
2022-08-01T12:28:23.654Z,2.55
2022-08-01T12:31:35.265Z,5.22
2022-08-01T12:34:36.942Z,2.70
2022-08-01T12:37:40.730Z,4.55
2022-08-01T12:40:45.463Z,1.20
2022-08-01T12:43:48.859Z,1.52
2022-08-01T12:46:54.132Z,2.22
2022-08-01T12:50:03.791Z,2.03
2022-08-01T12:53:17.115Z,3.03
2022-08-01T12:56:36.740Z,2.63
2022-08-01T12:59:38.779Z,2.33
2022-08-01T13:02:41.816Z,1.58
2022-08-01T13:05:57.246Z,3.20
2022-08-01T13:09:11.123Z,2.60
2022-08-01T13:12:13.015Z,4.05
2022-08-01T13:15:22.306Z,3.45
2022-08-01T13:18:33.279Z,1.75
2022-08-01T13:21:53.608Z,1.60
2022-08-01T13:25:14.392Z,2.17
2022-08-01T13:28:19.447Z,2.45
2022-08-01T13:31:21.274Z,1.95
2022-08-01T13:34:34.368Z,2.72
2022-08-01T13:37:38.956Z,2.17
2022-08-01T13:40:41.257Z,2.55
2022-08-01T13:43:58.959Z,4.60
2022-08-01T13:47:02.456Z,1.70
2022-08-01T13:50:16.707Z,1.80
2022-08-01T13:53:18.633Z,2.53
2022-08-01T13:56:20.943Z,1.80
2022-08-01T13:59:22.526Z,2.55
2022-08-01T14:02:24.300Z,1.52
2022-08-01T14:05:31.630Z,2.25
2022-08-01T14:08:34.673Z,1.55
2022-08-01T14:11:37.615Z,1.73
2022-08-01T14:14:48.382Z,2.08
2022-08-01T14:17:52.978Z,3.20
2022-08-01T14:21:05.680Z,2.42
2022-08-01T14:24:09.080Z,2.10
2022-08-01T14:27:11.404Z,1.67
2022-08-01T14:30:14.397Z,1.80
2022-08-01T14:33:17.312Z,3.00
2022-08-01T14:36:30.078Z,2.97
2022-08-01T14:39:38.973Z,2.08
2022-08-01T14:42:48.622Z,4.00
2022-08-01T14:45:52.520Z,2.92
2022-08-01T14:48:58.350Z,3.03
2022-08-01T14:52:02.622Z,2.10
2022-08-01T14:55:11.420Z,2.72
2022-08-01T14:58:13.189Z,1.75
2022-08-01T15:01:16.005Z,4.68
2022-08-01T15:04:25.631Z,3.35
2022-08-01T15:07:32.002Z,4.32
2022-08-01T15:10:37.719Z,2.83
2022-08-01T15:13:42.995Z,3.45
2022-08-01T15:16:45.700Z,4.18
2022-08-01T15:19:54.759Z,2.72
2022-08-01T15:23:01.652Z,5.78
2022-08-01T15:26:04.318Z,2.17
2022-08-01T15:29:09.743Z,3.00
2022-08-01T15:32:15.537Z,3.30
2022-08-01T15:35:18.136Z,3.05
2022-08-01T15:38:25.577Z,4.78
2022-08-01T15:41:27.174Z,5.85
2022-08-01T15:44:28.819Z,5.88
2022-08-01T15:47:30.717Z,8.68
2022-08-01T15:50:32.413Z,4.30
2022-08-01T15:53:33.988Z,3.42
2022-08-01T15:56:36.012Z,5.60
2022-08-01T15:59:41.773Z,4.88
2022-08-01T16:02:44.539Z,3.78
2022-08-01T16:05:52.107Z,5.18
2022-08-01T16:08:54.172Z,3.03
2022-08-01T16:11:56.405Z,3.10
2022-08-01T16:14:59.522Z,2.47
2022-08-01T16:18:06.098Z,2.97
2022-08-01T16:21:07.886Z,2.63
2022-08-01T16:24:10.432Z,3.50
2022-08-01T16:27:12.766Z,6.80
2022-08-01T16:30:14.912Z,3.72
2022-08-01T16:33:45.992Z,3.67
2022-08-01T16:36:42.718Z,4.90
2022-08-01T16:39:50.025Z,3.67
2022-08-01T16:42:52.346Z,2.83
2022-08-01T16:45:54.507Z,1.92
2022-08-01T16:48:56.997Z,2.20
2022-08-01T16:52:01.014Z,5.68
2022-08-01T16:55:03.300Z,5.68
2022-08-01T16:58:11.996Z,3.35
2022-08-01T17:01:58.316Z,4.15
2022-08-01T17:04:41.072Z,4.93
2022-08-01T17:07:42.734Z,2.28
2022-08-01T17:10:45.374Z,3.92
2022-08-01T17:13:48.008Z,5.53
2022-08-01T17:16:50.231Z,4.80
2022-08-01T17:19:57.766Z,3.80
2022-08-01T17:23:03.869Z,5.43
2022-08-01T17:26:09.395Z,3.58
2022-08-01T17:29:11.409Z,4.30
2022-08-01T17:32:14.400Z,2.60
2022-08-01T17:35:17.006Z,4.38
2022-08-01T17:38:20.304Z,4.22
2022-08-01T17:41:22.262Z,4.25
2022-08-01T17:44:26.059Z,2.95
2022-08-01T17:47:48.475Z,6.93
2022-08-01T17:50:59.123Z,4.80
2022-08-01T17:54:01.465Z,4.57
2022-08-01T17:57:03.692Z,3.63
2022-08-01T18:00:11.012Z,4.10
2022-08-01T18:03:21.475Z,4.63
2022-08-01T18:06:35.883Z,2.35
2022-08-01T18:09:45.809Z,4.38
2022-08-01T18:12:48.348Z,4.63
2022-08-01T18:15:50.633Z,10.20
2022-08-01T18:18:53.073Z,2.97
2022-08-01T18:21:57.062Z,5.13
2022-08-01T18:24:59.541Z,5.63
2022-08-01T18:28:29.564Z,4.20
2022-08-01T18:31:29.857Z,3.70
2022-08-01T18:34:32.557Z,5.95
2022-08-01T18:37:54.534Z,6.25
2022-08-01T18:40:57.913Z,5.55
2022-08-01T18:44:05.586Z,6.65
2022-08-01T18:47:13.173Z,7.45
2022-08-01T18:50:15.620Z,6.28
2022-08-01T18:53:19.117Z,5.35
2022-08-01T18:56:24.604Z,5.40
2022-08-01T18:59:27.248Z,9.20
2022-08-01T19:02:29.936Z,6.75
2022-08-01T19:05:36.181Z,8.00
2022-08-01T19:08:40.899Z,5.70
2022-08-01T19:11:49.913Z,5.65
2022-08-01T19:14:53.738Z,8.73
2022-08-01T19:17:56.138Z,10.77
2022-08-01T19:20:58.733Z,5.55
2022-08-01T19:24:22.609Z,6.70
2022-08-01T19:27:30.549Z,5.30
2022-08-01T19:30:39.386Z,7.88
2022-08-01T19:33:43.719Z,4.93
2022-08-01T19:36:51.368Z,7.85
2022-08-01T19:39:53.515Z,9.93
2022-08-01T19:43:06.324Z,11.30
2022-08-01T19:46:08.656Z,10.35
2022-08-01T19:49:21.908Z,8.48
2022-08-01T19:52:27.059Z,5.47
2022-08-01T19:55:32.185Z,6.35
2022-08-01T19:58:43.602Z,9.40
2022-08-01T20:01:46.812Z,7.45
2022-08-01T20:04:49.812Z,9.30
2022-08-01T20:07:54.597Z,7.80
2022-08-01T20:11:01.891Z,8.90
2022-08-01T20:14:06.101Z,11.90
2022-08-01T20:17:08.841Z,7.65
2022-08-01T20:20:11.121Z,15.43
2022-08-01T20:23:18.624Z,9.90
2022-08-01T20:26:22.277Z,11.38
2022-08-01T20:29:25.664Z,7.28
2022-08-01T20:32:40.084Z,9.13
2022-08-01T20:35:52.263Z,11.73
2022-08-01T20:38:57.493Z,8.80
2022-08-01T20:42:01.000Z,8.00
2022-08-01T20:45:05.147Z,12.00
2022-08-01T20:48:08.745Z,10.30
2022-08-01T20:51:16.501Z,6.85
2022-08-01T20:54:18.877Z,14.85
2022-08-01T20:57:28.012Z,10.15
2022-08-01T21:00:32.185Z,19.40
2022-08-01T21:03:45.290Z,11.95
2022-08-01T21:07:01.068Z,13.60
2022-08-01T21:10:20.713Z,12.70
2022-08-01T21:13:38.831Z,9.23
2022-08-01T21:16:46.998Z,16.52
2022-08-01T21:19:55.551Z,14.25
2022-08-01T21:23:11.247Z,10.57
2022-08-01T21:26:19.890Z,16.63
2022-08-01T21:29:27.388Z,12.20
2022-08-01T21:32:31.249Z,14.23
2022-08-01T21:35:37.349Z,10.38
2022-08-01T21:38:46.321Z,12.32
2022-08-01T21:42:05.418Z,14.48
2022-08-01T21:45:10.077Z,12.18
2022-08-01T21:48:14.924Z,15.25
2022-08-01T21:51:51.927Z,13.35
2022-08-01T21:55:21.136Z,15.20
2022-08-01T21:58:44.589Z,12.98
2022-08-01T22:02:02.697Z,17.63
2022-08-01T22:05:09.925Z,12.30
2022-08-01T22:08:15.890Z,10.48
2022-08-01T22:11:25.582Z,8.85
2022-08-01T22:14:29.090Z,11.40
2022-08-01T22:17:31.770Z,14.50
2022-08-01T22:20:33.686Z,12.18
2022-08-01T22:23:36.841Z,12.15
2022-08-01T22:26:40.543Z,13.27
2022-08-01T22:29:42.307Z,11.35
2022-08-01T22:33:07.229Z,15.07
2022-08-01T22:36:08.521Z,12.43
2022-08-01T22:39:10.606Z,9.57
2022-08-01T22:42:12.976Z,11.15
2022-08-01T22:45:25.111Z,15.82
2022-08-01T22:48:36.356Z,10.98
2022-08-01T22:52:13.546Z,14.52
2022-08-01T22:55:25.066Z,12.25
2022-08-01T22:58:57.507Z,13.98
2022-08-01T23:02:03.727Z,11.55
2022-08-01T23:05:08.765Z,9.35
2022-08-01T23:08:16.491Z,13.05
2022-08-01T23:11:21.542Z,13.15
2022-08-01T23:14:25.568Z,10.57
2022-08-01T23:17:30.880Z,18.92
2022-08-01T23:20:35.904Z,17.05
2022-08-01T23:23:40.226Z,13.63
2022-08-01T23:26:51.201Z,11.38
2022-08-01T23:30:07.582Z,10.25
2022-08-01T23:33:09.984Z,13.43
2022-08-01T23:36:19.066Z,19.95
2022-08-01T23:39:25.796Z,12.80
2022-08-01T23:42:28.736Z,11.38
2022-08-01T23:45:38.227Z,12.50
2022-08-01T23:48:54.349Z,14.75
2022-08-01T23:52:02.376Z,11.60
2022-08-01T23:55:15.122Z,12.82
2022-08-01T23:58:18.084Z,16.23
